Pagrindinis puslapis
METAR-TAF:

METAR-TAF

Oro uostai :

Qaisumah, Saudo Arabija

platuma: 28-19N, ilguma: 046-07E, Aukštis: 358 m

Dabartinis oras

Ataskaita buvo paskelbta 30 minutes, ne 10:00 UTC
Vėjas 18 kt iš Šiaurės Vakarų
Temperatūra 20°C
Drėgmė 46%
Slėgis 1017 hPa
Matomumas: 8000 m
Giedras dangus

METAR: OEPA 261000Z 31018KT 8000 SKC 20/08 Q1017 NOSIG

Laikas: 13:30 (10:30 UTC)

Prognozė

Ataskaita buvo paskelbta 11 valandos ir 30 minutes, ne 23:00 UTC
Prognozė galioja nuo 26 metu 00 UTC su 27 metu 06 UTC
Vėjas 15 kt iš Vakarų/Šiaurės Vakarų su gūsio iki 25 kt
Matomumas: 6000 m
Išsisklaidę debesys ne aukštis 4000 ft
Laikinai
nuo 26 metu 00 UTC su 26 metu 14 UTC
Matomumas: 3000 m
Dulkes pustymas
Tikimybė 40% :
Laikinai
nuo 26 metu 00 UTC su 26 metu 08 UTC
Matomumas: 1000 m
Smėlio pustymas

TAF: OEPA 252300Z 2600/2706 30015G25KT 6000 SCT040 TEMPO 2600/2614 3000 BLDU PROB40 TEMPO 2600/2608 1000 BLSA

Orai ataskaitas ir orų prognozės (METAR, TAF).

turimą stotys yra geltonos ir raudonos taškus žemėlapyje.

Perkelti pele per norėdami pamatyti stoties vardą.

Tada spustelėkite, norėdami matyti oro stebėjimo ir prognozės.

Norėdami pakeisti žemėlapį: spustelėkite ant žalios mygtukų su juodo kryžiaus žemyn,; žalią mygtuką su brūkšneliu, jei norite nutolinti; arba žalių rodyklių gretimoms žemėlapius.


METAR-TAF: